Parawa Second Valley Forest, Australia
Current Conditions -  °F | °C
As of 4:30 AM on Tuesday 23 Dec 2014 (Local Time) from YPAD Reporting Station
Broken Clouds Broken Clouds  
Wind Chill: 64°   Ceiling: 4200
Heat Index: 64°   Visibility: 6mi
Dew Point: 59°   Wind: 15mph
Humidity: 83%   Direction: 200°SSW
Pressure: 29.83"   Gusts: NA
Location:  35.57°S, 138.24°E
Report Text: YPAD 221830Z 20013KT 9999 SCT012 BKN042 18/15 Q1010 FM1900 21010KT 9999 -SHRA BKN010
Loading
Personal Weather Stations






























Interactive Weather Map New forecast layout! Learn more

10-Day Weather Forecast

Advertisements
Track Severe Weather on mobile